Time;durP1;ratioP1;P1;durP2;ratioP2;P2;SDS_P1;SDS_P2;PMS_P1;PMS_P2;Temp;Humidity;BMP_temperature;BMP_pressure;BME280_temperature;BME280_humidity;BME280_pressure;Samples;Min_cycle;Max_cycle;Signal;HPM_P1;HPM_P2
2021/05/09 00:01:27;;;;;;;7.53;6.32;;;16.80;99.90;;;;;;5070784;28;20665;-73
2021/05/09 00:03:54;;;;;;;8.05;5.68;;;16.80;99.90;;;;;;5070065;28;20210;-73
2021/05/09 00:06:21;;;;;;;8.85;5.15;;;16.80;99.90;;;;;;5070135;28;20210;-73
2021/05/09 00:08:48;;;;;;;9.70;5.00;;;16.80;99.90;;;;;;5069759;28;20239;-74
2021/05/09 00:11:15;;;;;;;8.95;5.65;;;16.90;99.90;;;;;;5072220;28;20291;-72
2021/05/09 00:13:42;;;;;;;7.63;4.85;;;16.90;99.90;;;;;;5073675;28;20680;-74
2021/05/09 00:16:09;;;;;;;13.40;5.05;;;16.90;99.90;;;;;;5074238;28;20676;-73
2021/05/09 00:18:36;;;;;;;8.63;4.75;;;16.90;99.90;;;;;;5073623;28;20635;-74
2021/05/09 00:21:02;;;;;;;8.63;5.32;;;16.90;99.90;;;;;;5074320;28;20209;-74
2021/05/09 00:23:29;;;;;;;14.23;5.28;;;16.80;99.90;;;;;;5074255;28;20213;-75
2021/05/09 00:25:56;;;;;;;10.43;4.65;;;16.90;99.90;;;;;;5074328;28;20226;-73
2021/05/09 00:28:23;;;;;;;10.93;5.10;;;16.80;99.90;;;;;;5074620;28;20214;-74
2021/05/09 00:30:49;;;;;;;8.80;5.40;;;16.80;99.90;;;;;;5073640;28;20215;-74
2021/05/09 00:33:16;;;;;;;15.35;5.47;;;16.70;99.90;;;;;;5074003;28;20206;-73
2021/05/09 00:35:42;;;;;;;9.07;5.60;;;16.80;99.90;;;;;;5073339;28;20263;-73
2021/05/09 00:38:09;;;;;;;11.07;6.82;;;16.80;99.90;;;;;;5074161;28;20616;-74
2021/05/09 00:40:36;;;;;;;6.45;5.35;;;16.70;99.90;;;;;;5073570;28;20213;-72
2021/05/09 00:43:03;;;;;;;9.15;4.80;;;16.80;99.90;;;;;;5073798;28;20650;-73
2021/05/09 00:45:29;;;;;;;7.80;5.72;;;16.70;99.90;;;;;;5073677;28;20206;-74
2021/05/09 00:47:56;;;;;;;9.35;5.63;;;16.70;99.90;;;;;;5073691;28;20266;-72
2021/05/09 00:50:22;;;;;;;10.95;5.63;;;16.80;99.90;;;;;;5073821;28;20275;-72
2021/05/09 00:52:49;;;;;;;5.10;4.30;;;16.70;99.90;;;;;;5073370;28;20233;-73
2021/05/09 00:55:19;;;;;;;9.40;5.25;;;16.70;99.90;;;;;;5073414;28;20202;-73
2021/05/09 00:57:47;;;;;;;9.35;5.82;;;16.70;99.90;;;;;;5073199;28;20210;-73
2021/05/09 01:00:16;;;;;;;9.60;5.65;;;16.70;99.90;;;;;;5073466;28;20202;-72
2021/05/09 01:02:44;;;;;;;12.93;6.72;;;16.70;99.90;;;;;;5073107;28;20217;-73
2021/05/09 01:05:12;;;;;;;12.00;4.97;;;16.70;99.90;;;;;;5073100;28;20296;-72
2021/05/09 01:07:39;;;;;;;8.75;5.20;;;16.80;99.90;;;;;;5073252;28;20263;-70
2021/05/09 01:10:08;;;;;;;13.50;6.43;;;16.70;99.90;;;;;;5073177;28;20735;-72
2021/05/09 01:12:34;;;;;;;13.35;4.97;;;16.70;99.90;;;;;;5072766;28;20657;-71
2021/05/09 01:15:02;;;;;;;10.02;5.40;;;16.70;99.90;;;;;;5073135;28;20212;-73
2021/05/09 01:17:30;;;;;;;11.13;5.15;;;16.70;99.90;;;;;;5073095;28;20279;-72
2021/05/09 01:20:00;;;;;;;7.45;5.07;;;16.60;99.90;;;;;;5073138;28;20590;-73
2021/05/09 01:22:27;;;;;;;11.95;6.70;;;16.60;99.90;;;;;;5072123;28;20209;-71
2021/05/09 01:24:53;;;;;;;9.20;5.40;;;16.70;99.90;;;;;;5072952;28;20213;-72
2021/05/09 01:27:20;;;;;;;10.68;5.57;;;16.70;99.90;;;;;;5073041;28;20570;-71
2021/05/09 01:29:46;;;;;;;12.70;5.60;;;16.70;99.90;;;;;;5072462;28;20589;-70
2021/05/09 01:32:13;;;;;;;10.48;5.38;;;16.70;99.90;;;;;;5072874;28;20241;-73
2021/05/09 01:34:39;;;;;;;16.38;5.82;;;16.60;99.90;;;;;;5072487;28;20214;-71
2021/05/09 01:37:07;;;;;;;11.43;6.18;;;16.70;99.90;;;;;;5072890;28;20202;-74
2021/05/09 01:39:34;;;;;;;11.07;5.05;;;16.60;99.90;;;;;;5072342;28;20599;-71
2021/05/09 01:42:02;;;;;;;14.63;5.85;;;16.60;99.90;;;;;;5072479;28;20236;-71
2021/05/09 01:44:29;;;;;;;7.53;4.78;;;16.60;99.90;;;;;;5072386;28;20242;-71
2021/05/09 01:46:55;;;;;;;9.75;6.93;;;16.60;99.90;;;;;;5058663;28;20252;-72
2021/05/09 01:49:22;;;;;;;9.38;5.85;;;16.50;99.90;;;;;;5072897;28;20593;-71
2021/05/09 01:51:49;;;;;;;8.90;6.25;;;16.50;99.90;;;;;;5072038;28;20238;-71
2021/05/09 01:54:16;;;;;;;9.20;5.32;;;16.50;99.90;;;;;;5072609;28;20236;-74
2021/05/09 01:56:43;;;;;;;19.52;6.72;;;16.50;99.90;;;;;;5071747;28;20202;-71
2021/05/09 01:59:10;;;;;;;7.45;5.38;;;16.50;99.90;;;;;;5072714;28;20206;-73
2021/05/09 02:01:37;;;;;;;11.32;5.85;;;16.50;99.90;;;;;;5072064;28;20206;-71
2021/05/09 02:04:04;;;;;;;14.75;5.35;;;16.50;99.90;;;;;;5072343;28;20216;-73
2021/05/09 02:06:31;;;;;;;9.30;5.20;;;16.50;99.90;;;;;;5071890;28;20214;-74
2021/05/09 02:08:57;;;;;;;12.50;5.65;;;16.60;99.90;;;;;;5072337;28;20205;-73
2021/05/09 02:11:24;;;;;;;9.93;5.50;;;16.50;99.90;;;;;;5072186;28;20616;-73
2021/05/09 02:13:51;;;;;;;14.18;5.43;;;16.50;99.90;;;;;;5071487;28;20252;-72
2021/05/09 02:16:17;;;;;;;7.65;4.93;;;16.50;99.90;;;;;;5072077;28;20217;-73
2021/05/09 02:18:44;;;;;;;11.07;6.03;;;16.50;99.90;;;;;;5071211;28;20205;-73
2021/05/09 02:21:10;;;;;;;11.30;5.35;;;16.50;99.90;;;;;;5072039;28;20312;-70
2021/05/09 02:23:37;;;;;;;12.15;5.05;;;16.50;99.90;;;;;;5071615;28;20210;-73
2021/05/09 02:26:03;;;;;;;9.45;4.78;;;16.50;99.90;;;;;;5072220;28;20205;-73
2021/05/09 02:28:31;;;;;;;9.77;5.38;;;16.40;99.90;;;;;;5071955;28;20206;-74
2021/05/09 02:30:57;;;;;;;11.23;6.03;;;16.40;99.90;;;;;;5071644;28;20220;-73
2021/05/09 02:33:24;;;;;;;12.45;4.38;;;16.40;99.90;;;;;;5071507;28;20202;-74
2021/05/09 02:35:50;;;;;;;12.50;5.32;;;16.40;99.90;;;;;;5071364;28;20268;-74
2021/05/09 02:38:17;;;;;;;13.60;5.07;;;16.40;99.90;;;;;;5071584;28;20206;-75
2021/05/09 02:40:44;;;;;;;16.05;6.90;;;16.40;99.90;;;;;;5070916;28;20202;-74
2021/05/09 02:43:15;;;;;;;12.48;5.68;;;16.30;99.90;;;;;;5071781;28;20251;-70
2021/05/09 02:45:43;;;;;;;9.80;4.82;;;16.40;99.90;;;;;;5070877;28;20209;-73
2021/05/09 02:48:10;;;;;;;12.60;5.70;;;16.40;99.90;;;;;;5071260;28;20202;-75
2021/05/09 02:50:36;;;;;;;8.70;5.32;;;16.40;99.90;;;;;;5071172;28;20202;-71
2021/05/09 02:53:03;;;;;;;14.77;5.28;;;16.40;99.90;;;;;;5062509;28;20230;-70
2021/05/09 02:55:29;;;;;;;10.40;5.15;;;16.30;99.90;;;;;;5071197;28;20209;-75
2021/05/09 02:57:55;;;;;;;9.68;4.55;;;16.30;99.90;;;;;;5070916;28;20700;-69
2021/05/09 03:00:22;;;;;;;18.13;6.20;;;16.20;99.90;;;;;;5071260;28;20228;-71
2021/05/09 03:02:49;;;;;;;10.32;5.43;;;16.20;99.90;;;;;;5070602;28;20206;-71
2021/05/09 03:05:16;;;;;;;12.13;5.63;;;16.30;99.90;;;;;;5071113;28;20209;-72
2021/05/09 03:07:42;;;;;;;11.65;5.47;;;16.30;99.90;;;;;;5070289;28;20229;-74
2021/05/09 03:10:10;;;;;;;7.32;5.03;;;16.40;99.90;;;;;;5071143;28;20206;-72
2021/05/09 03:12:36;;;;;;;16.75;6.53;;;16.40;99.90;;;;;;5070536;28;20237;-71
2021/05/09 03:15:03;;;;;;;9.93;4.97;;;16.40;99.90;;;;;;5070834;28;20201;-72
2021/05/09 03:17:31;;;;;;;9.05;5.25;;;16.40;99.90;;;;;;5070722;28;20205;-71
2021/05/09 03:20:00;;;;;;;12.95;5.50;;;16.40;99.90;;;;;;5070854;28;20213;-73
2021/05/09 03:22:26;;;;;;;12.15;4.70;;;16.30;99.90;;;;;;5071136;28;20573;-73
2021/05/09 03:24:53;;;;;;;10.45;5.82;;;16.20;99.90;;;;;;5070324;28;20206;-72
2021/05/09 03:27:19;;;;;;;8.27;4.90;;;16.20;99.90;;;;;;5070795;28;20209;-72
2021/05/09 03:29:45;;;;;;;17.52;6.43;;;16.20;99.90;;;;;;5070193;28;20212;-69
2021/05/09 03:32:12;;;;;;;12.50;5.97;;;16.20;99.90;;;;;;5070921;28;20236;-70
2021/05/09 03:34:38;;;;;;;12.82;5.53;;;16.30;99.90;;;;;;5070051;28;20244;-70
2021/05/09 03:37:06;;;;;;;13.00;5.43;;;16.30;99.90;;;;;;5070646;28;20727;-70
2021/05/09 03:39:32;;;;;;;6.80;5.00;;;16.30;99.90;;;;;;5070193;28;20210;-72
2021/05/09 03:41:59;;;;;;;8.00;4.55;;;16.30;99.90;;;;;;5070279;28;20692;-74
2021/05/09 03:44:25;;;;;;;13.82;5.93;;;16.30;99.90;;;;;;5070582;28;20584;-71
2021/05/09 03:46:51;;;;;;;11.70;5.88;;;16.30;99.90;;;;;;5069224;28;20279;-72
2021/05/09 03:49:18;;;;;;;11.57;5.18;;;16.30;99.90;;;;;;5070465;28;20713;-72
2021/05/09 03:51:44;;;;;;;7.20;5.10;;;16.30;99.90;;;;;;5070076;28;20226;-71
2021/05/09 03:54:12;;;;;;;9.82;5.82;;;16.30;99.90;;;;;;5070481;28;20202;-71
2021/05/09 03:56:38;;;;;;;12.45;4.75;;;16.30;99.90;;;;;;5070022;28;20260;-72
2021/05/09 03:59:04;;;;;;;14.65;6.05;;;16.30;99.90;;;;;;5070361;28;20198;-72
2021/05/09 04:01:31;;;;;;;9.93;4.50;;;16.30;99.90;;;;;;5069912;28;20214;-72
2021/05/09 04:03:57;;;;;;;9.25;4.95;;;16.40;99.90;;;;;;5070366;28;21726;-74
2021/05/09 04:06:24;;;;;;;11.68;5.28;;;16.40;99.90;;;;;;5070790;28;20213;-73
2021/05/09 04:08:50;;;;;;;9.82;4.93;;;16.30;99.90;;;;;;5069980;28;20267;-73
2021/05/09 04:11:18;;;;;;;6.70;4.82;;;16.30;99.90;;;;;;5070528;28;20280;-72
2021/05/09 04:13:45;;;;;;;11.95;5.18;;;16.30;99.90;;;;;;5069739;28;20669;-73
2021/05/09 04:16:12;;;;;;;12.13;5.72;;;16.40;99.90;;;;;;5070157;28;20206;-72
2021/05/09 04:18:38;;;;;;;16.83;5.63;;;16.30;99.90;;;;;;5069821;28;20766;-71
2021/05/09 04:21:05;;;;;;;10.80;5.68;;;16.30;99.90;;;;;;5070317;28;20581;-73
2021/05/09 04:23:32;;;;;;;12.38;4.35;;;16.30;99.90;;;;;;5069777;28;20198;-72
2021/05/09 04:25:58;;;;;;;8.68;4.45;;;16.30;99.90;;;;;;5070142;28;20216;-71
2021/05/09 04:28:26;;;;;;;9.93;4.65;;;16.30;99.90;;;;;;5070446;28;20214;-74
2021/05/09 04:30:52;;;;;;;8.93;4.75;;;16.30;99.90;;;;;;5069682;28;20293;-74
2021/05/09 04:33:24;;;;;;;9.32;4.95;;;16.30;99.90;;;;;;5070406;28;20283;-71
2021/05/09 04:35:50;;;;;;;11.98;5.65;;;16.40;99.90;;;;;;5070035;28;20579;-71
2021/05/09 04:38:17;;;;;;;7.65;4.63;;;16.30;99.90;;;;;;5070045;28;20206;-72
2021/05/09 04:40:44;;;;;;;7.47;5.00;;;16.30;99.90;;;;;;5069543;28;20210;-69
2021/05/09 04:43:13;;;;;;;15.40;5.22;;;16.30;99.90;;;;;;5069733;28;20615;-70
2021/05/09 04:45:40;;;;;;;6.00;4.38;;;16.30;99.90;;;;;;5069741;28;20210;-71
2021/05/09 04:48:07;;;;;;;11.23;4.75;;;16.40;99.90;;;;;;5069780;28;20210;-71
2021/05/09 04:50:34;;;;;;;8.10;5.05;;;16.40;99.90;;;;;;5069782;28;20206;-71
2021/05/09 04:53:00;;;;;;;7.55;4.93;;;16.40;99.90;;;;;;5069772;28;20296;-73
2021/05/09 04:55:27;;;;;;;8.27;4.32;;;16.30;99.90;;;;;;5069791;28;20202;-73
2021/05/09 04:57:54;;;;;;;15.10;5.20;;;16.40;99.90;;;;;;5071966;28;20202;-74
2021/05/09 05:00:21;;;;;;;5.25;4.47;;;16.40;99.90;;;;;;5073358;28;20210;-75
2021/05/09 05:02:49;;;;;;;10.02;4.18;;;16.40;99.90;;;;;;5073518;28;20581;-75
2021/05/09 05:05:16;;;;;;;10.75;5.82;;;16.30;99.90;;;;;;5073177;28;20206;-77
2021/05/09 05:07:42;;;;;;;8.65;4.90;;;16.40;99.90;;;;;;5073464;28;20209;-73
2021/05/09 05:10:09;;;;;;;12.25;5.45;;;16.40;99.90;;;;;;5072930;28;20263;-74
2021/05/09 05:12:36;;;;;;;8.18;3.92;;;16.40;99.90;;;;;;5072809;28;20302;-73
2021/05/09 05:15:02;;;;;;;8.95;4.38;;;16.50;99.90;;;;;;5072865;28;20731;-72
2021/05/09 05:17:28;;;;;;;11.27;3.88;;;16.50;99.90;;;;;;5073016;28;20214;-73
2021/05/09 05:19:56;;;;;;;6.97;4.35;;;16.50;99.90;;;;;;5073008;28;20214;-71
2021/05/09 05:22:22;;;;;;;12.32;4.35;;;16.50;99.90;;;;;;5073177;28;20206;-70
2021/05/09 05:24:49;;;;;;;9.48;4.30;;;16.60;99.90;;;;;;5072815;28;21045;-71
2021/05/09 05:27:15;;;;;;;7.82;4.75;;;16.60;99.90;;;;;;5072440;28;20673;-69
2021/05/09 05:29:41;;;;;;;6.35;4.40;;;16.70;99.90;;;;;;5072879;28;20229;-69
2021/05/09 05:32:08;;;;;;;11.57;4.18;;;16.80;99.90;;;;;;5072443;28;20640;-74
2021/05/09 05:34:34;;;;;;;8.68;4.57;;;16.80;99.90;;;;;;5072675;28;20693;-72
2021/05/09 05:37:02;;;;;;;12.77;4.00;;;16.80;99.90;;;;;;5072522;28;20666;-70
2021/05/09 05:39:28;;;;;;;6.70;4.38;;;16.80;99.90;;;;;;5072654;28;20214;-71
2021/05/09 05:41:56;;;;;;;8.55;4.00;;;16.80;99.90;;;;;;5072736;28;20681;-76
2021/05/09 05:44:23;;;;;;;9.80;5.57;;;16.80;99.90;;;;;;5072850;28;20214;-74
2021/05/09 05:46:49;;;;;;;7.13;3.95;;;16.80;99.90;;;;;;5072640;28;20371;-70
2021/05/09 05:49:16;;;;;;;12.20;4.20;;;16.80;99.90;;;;;;5072129;28;20292;-74
2021/05/09 05:51:42;;;;;;;8.75;4.35;;;16.90;99.90;;;;;;5072331;28;20600;-74
2021/05/09 05:54:10;;;;;;;7.22;4.07;;;16.90;99.90;;;;;;5071645;28;20593;-71
2021/05/09 05:56:36;;;;;;;8.82;3.70;;;16.90;99.90;;;;;;5072427;28;20202;-73
2021/05/09 05:59:03;;;;;;;9.95;4.60;;;17.00;99.90;;;;;;5072424;28;20260;-74
2021/05/09 06:01:29;;;;;;;10.07;4.60;;;17.00;99.90;;;;;;5072700;28;20621;-75
2021/05/09 06:03:56;;;;;;;7.80;4.18;;;17.00;99.90;;;;;;5072366;28;20211;-74
2021/05/09 06:06:22;;;;;;;9.55;4.15;;;17.10;99.90;;;;;;5072357;28;20198;-72
2021/05/09 06:08:51;;;;;;;8.45;3.53;;;17.20;99.90;;;;;;5070993;28;20599;-71
2021/05/09 06:11:19;;;;;;;12.27;4.10;;;17.20;99.90;;;;;;5072128;28;20573;-70
2021/05/09 06:13:45;;;;;;;5.47;3.83;;;17.20;99.90;;;;;;5072364;28;20264;-72
2021/05/09 06:16:12;;;;;;;8.30;4.57;;;17.30;99.90;;;;;;5071654;28;20255;-73
2021/05/09 06:18:38;;;;;;;6.03;3.22;;;17.40;99.90;;;;;;5072271;28;20206;-70
2021/05/09 06:21:05;;;;;;;6.07;3.28;;;17.40;99.90;;;;;;5071456;28;20206;-68
2021/05/09 06:23:31;;;;;;;10.80;4.47;;;17.50;99.90;;;;;;5071462;28;20577;-74
2021/05/09 06:25:58;;;;;;;5.70;3.03;;;17.60;99.90;;;;;;5072047;28;20256;-80
2021/05/09 06:28:25;;;;;;;12.35;3.58;;;17.60;99.90;;;;;;5072255;28;20207;-82
2021/05/09 06:30:52;;;;;;;5.28;3.28;;;17.80;99.90;;;;;;5071698;28;20264;-69
2021/05/09 06:33:18;;;;;;;8.88;3.38;;;17.80;99.90;;;;;;5072098;28;20229;-71
2021/05/09 06:35:44;;;;;;;8.23;3.95;;;17.90;99.90;;;;;;5071600;28;20205;-78
2021/05/09 06:38:11;;;;;;;7.43;3.08;;;18.00;99.90;;;;;;5071096;28;20205;-69
2021/05/09 06:40:38;;;;;;;5.13;3.15;;;18.20;99.90;;;;;;5071640;28;20209;-76
2021/05/09 06:43:06;;;;;;;8.75;3.42;;;18.40;99.90;;;;;;5071289;28;20595;-79
2021/05/09 06:45:34;;;;;;;10.55;3.33;;;18.30;99.90;;;;;;5071948;28;20325;-75
2021/05/09 06:48:04;;;;;;;6.05;3.38;;;18.50;99.90;;;;;;5071244;28;20213;-74
2021/05/09 06:50:32;;;;;;;6.28;3.50;;;18.60;99.90;;;;;;5071782;28;20233;-68
2021/05/09 06:52:59;;;;;;;4.60;2.88;;;18.70;99.90;;;;;;5071218;28;20291;-72
2021/05/09 06:55:26;;;;;;;7.32;3.00;;;18.90;99.90;;;;;;5071659;28;20738;-73
2021/05/09 06:57:53;;;;;;;5.70;3.30;;;18.70;99.90;;;;;;5071280;28;20214;-76
2021/05/09 07:00:20;;;;;;;6.93;2.90;;;18.70;99.90;;;;;;5071122;28;20206;-76
2021/05/09 07:02:48;;;;;;;4.03;2.80;;;18.60;99.90;;;;;;5071229;28;20210;-79
2021/05/09 07:05:15;;;;;;;6.07;2.95;;;18.70;99.90;;;;;;5070732;28;20235;-77
2021/05/09 07:07:49;;;;;;;5.43;3.30;;;18.70;99.90;;;;;;5064893;28;20211;-79
2021/05/09 07:10:16;;;;;;;5.57;2.60;;;18.70;99.90;;;;;;5059126;28;20206;-72
2021/05/09 07:12:43;;;;;;;8.75;2.42;;;18.70;99.90;;;;;;5066357;28;20287;-76
2021/05/09 07:15:11;;;;;;;6.80;2.70;;;18.80;99.90;;;;;;5064199;28;20732;-74
2021/05/09 07:17:38;;;;;;;8.15;2.88;;;18.60;99.90;;;;;;5064670;28;20240;-76
2021/05/09 07:20:06;;;;;;;7.35;2.75;;;18.70;99.90;;;;;;5060493;28;20199;-70
2021/05/09 07:22:36;;;;;;;3.25;2.00;;;18.70;99.90;;;;;;5056234;28;20202;-68
2021/05/09 07:25:03;;;;;;;5.20;3.38;;;18.70;99.90;;;;;;5066011;28;20732;-73
2021/05/09 07:27:30;;;;;;;4.10;2.72;;;18.60;99.90;;;;;;5069303;28;20210;-73
2021/05/09 07:29:56;;;;;;;7.32;2.78;;;18.70;99.90;;;;;;5059213;28;20618;-70
2021/05/09 07:32:22;;;;;;;13.52;3.90;;;18.60;99.90;;;;;;5058004;28;20732;-72
2021/05/09 07:34:49;;;;;;;7.20;3.17;;;18.60;99.90;;;;;;5058112;28;20211;-72
2021/05/09 07:37:17;;;;;;;5.68;2.85;;;18.60;99.90;;;;;;5063136;28;20197;-73
2021/05/09 07:39:44;;;;;;;7.85;3.10;;;18.60;99.90;;;;;;5067902;28;20288;-80
2021/05/09 07:42:10;;;;;;;6.78;3.00;;;18.60;99.90;;;;;;5068515;28;20206;-78
2021/05/09 07:44:37;;;;;;;5.30;2.88;;;18.70;99.90;;;;;;5065026;28;20237;-73
2021/05/09 07:47:03;;;;;;;8.60;2.90;;;18.60;99.90;;;;;;5067706;28;20301;-78
2021/05/09 07:49:30;;;;;;;14.50;5.53;;;18.60;99.90;;;;;;5061398;28;20673;-77
2021/05/09 07:51:56;;;;;;;8.40;3.25;;;18.60;99.90;;;;;;5065641;28;20234;-70
2021/05/09 07:54:24;;;;;;;9.18;3.38;;;18.70;99.90;;;;;;5060122;28;20206;-77
2021/05/09 07:56:50;;;;;;;5.57;3.25;;;18.70;99.90;;;;;;5066334;28;20244;-78
2021/05/09 07:59:17;;;;;;;5.82;2.35;;;18.80;99.90;;;;;;5058994;28;20237;-74
2021/05/09 08:01:43;;;;;;;5.95;3.13;;;18.90;99.90;;;;;;5061261;28;20682;-73
2021/05/09 08:04:10;;;;;;;4.68;2.45;;;18.80;99.90;;;;;;5055280;28;20206;-76
2021/05/09 08:06:38;;;;;;;8.98;3.40;;;18.80;99.90;;;;;;5055485;28;20240;-76
2021/05/09 08:09:05;;;;;;;6.63;3.50;;;18.90;99.90;;;;;;5068334;28;20205;-75
2021/05/09 08:11:33;;;;;;;6.88;3.30;;;18.90;99.90;;;;;;5068841;28;20773;-71
2021/05/09 08:13:59;;;;;;;9.93;3.30;;;18.80;99.90;;;;;;5067611;28;20210;-77
2021/05/09 08:16:26;;;;;;;5.85;2.60;;;18.90;99.90;;;;;;5064049;28;20209;-71
2021/05/09 08:18:53;;;;;;;7.97;3.97;;;18.80;99.90;;;;;;5069329;28;21046;-69
2021/05/09 08:21:19;;;;;;;7.20;2.97;;;18.90;99.90;;;;;;5069994;28;20670;-71
2021/05/09 08:23:46;;;;;;;4.75;2.63;;;18.90;99.90;;;;;;5070147;28;20286;-76
2021/05/09 08:26:12;;;;;;;6.90;2.90;;;19.10;99.90;;;;;;5069650;28;20206;-72
2021/05/09 08:28:41;;;;;;;12.77;3.58;;;19.10;99.90;;;;;;5070029;28;20448;-78
2021/05/09 08:31:10;;;;;;;5.15;3.13;;;19.30;99.90;;;;;;5068404;28;20198;-76
2021/05/09 08:33:36;;;;;;;5.03;2.13;;;19.20;99.90;;;;;;5073866;28;20240;-73
2021/05/09 08:36:03;;;;;;;10.65;4.07;;;19.10;99.90;;;;;;5073657;28;20205;-70
2021/05/09 08:38:29;;;;;;;8.90;2.88;;;19.00;99.90;;;;;;5074280;28;20252;-83
2021/05/09 08:40:58;;;;;;;10.43;3.33;;;19.00;99.90;;;;;;5073456;28;20202;-74
2021/05/09 08:43:24;;;;;;;8.00;2.90;;;18.80;99.90;;;;;;5073558;28;20210;-77
2021/05/09 08:45:51;;;;;;;5.97;3.00;;;18.80;99.90;;;;;;5072990;28;20210;-80
2021/05/09 08:48:22;;;;;;;8.82;3.33;;;18.70;99.90;;;;;;5063715;28;20259;-74
2021/05/09 08:50:49;;;;;;;6.97;3.40;;;18.60;99.90;;;;;;5073416;28;20827;-78
2021/05/09 08:53:17;;;;;;;8.93;3.20;;;18.50;99.90;;;;;;5072714;28;20232;-77
2021/05/09 08:55:43;;;;;;;13.00;2.65;;;18.50;99.90;;;;;;5073773;28;20293;-78
2021/05/09 08:58:10;;;;;;;4.53;2.92;;;18.40;99.90;;;;;;5073190;28;20202;-78
2021/05/09 09:00:37;;;;;;;6.07;2.80;;;18.50;99.90;;;;;;5073270;28;20566;-78
2021/05/09 09:03:05;;;;;;;3.47;3.17;;;18.40;99.90;;;;;;5073277;28;20213;-72
2021/05/09 09:05:38;;;;;;;6.22;2.63;;;18.40;99.90;;;;;;5073446;28;20220;-79
2021/05/09 09:08:05;;;;;;;5.47;2.38;;;18.40;99.90;;;;;;5073052;28;20583;-70
2021/05/09 09:10:35;;;;;;;7.65;3.30;;;18.40;99.90;;;;;;5073708;28;20255;-76
2021/05/09 09:13:03;;;;;;;7.25;2.47;;;18.30;99.90;;;;;;5073382;28;20233;-78
2021/05/09 09:15:50;;;;;;;6.82;2.78;;;18.30;99.90;;;;;;5073421;28;20720;-73
2021/05/09 09:18:37;;;;;;;8.15;3.25;;;18.30;99.90;;;;;;5061522;28;20205;-75
2021/05/09 09:21:20;;;;;;;7.38;2.92;;;18.30;99.90;;;;;;5072771;28;20695;-79
2021/05/09 09:23:48;;;;;;;25.13;4.28;;;18.20;99.90;;;;;;5073068;28;20222;-80
2021/05/09 09:26:34;;;;;;;14.30;4.05;;;18.20;99.90;;;;;;5072330;28;20198;-75
2021/05/09 09:29:17;;;;;;;8.70;3.00;;;18.20;99.90;;;;;;5072779;28;20211;-76
2021/05/09 09:31:45;;;;;;;6.38;2.97;;;18.20;99.90;;;;;;5072742;28;20289;-80
2021/05/09 09:34:13;;;;;;;6.28;2.40;;;18.20;99.90;;;;;;5072740;28;20674;-75
2021/05/09 09:36:40;;;;;;;6.28;2.88;;;18.20;99.90;;;;;;5072796;28;20264;-70
2021/05/09 09:39:08;;;;;;;5.00;2.42;;;18.20;99.90;;;;;;5072523;28;20209;-74
2021/05/09 09:41:35;;;;;;;6.53;2.40;;;18.20;99.90;;;;;;5072793;28;20665;-74
2021/05/09 09:44:07;;;;;;;6.78;3.03;;;18.20;99.90;;;;;;5061851;28;20214;-69
2021/05/09 09:46:35;;;;;;;7.68;3.15;;;18.20;99.90;;;;;;5072386;28;20202;-69
2021/05/09 09:49:04;;;;;;;5.38;2.80;;;18.20;99.90;;;;;;5072323;28;20691;-71
2021/05/09 09:51:48;;;;;;;4.45;2.40;;;18.10;99.90;;;;;;5072254;28;20293;-75
2021/05/09 09:54:34;;;;;;;5.72;3.10;;;18.10;99.90;;;;;;5072202;28;20213;-75
2021/05/09 09:57:00;;;;;;;5.03;2.97;;;18.20;99.90;;;;;;5071746;28;20673;-77
2021/05/09 09:59:27;;;;;;;10.02;3.00;;;18.20;99.90;;;;;;5072269;28;20586;-79
2021/05/09 10:01:56;;;;;;;2.80;2.25;;;18.20;99.90;;;;;;5072106;28;20214;-76
2021/05/09 10:04:23;;;;;;;8.45;2.40;;;18.20;99.90;;;;;;5072270;28;20205;-82
2021/05/09 10:06:50;;;;;;;5.95;2.00;;;18.20;99.90;;;;;;5072695;28;20213;-78
2021/05/09 10:09:17;;;;;;;6.93;2.55;;;18.20;99.90;;;;;;5072164;28;20213;-75
2021/05/09 10:11:43;;;;;;;7.45;2.97;;;18.10;99.90;;;;;;5072225;28;20202;-79
2021/05/09 10:14:09;;;;;;;10.10;3.45;;;18.20;99.90;;;;;;5071468;28;20218;-80
2021/05/09 10:16:40;;;;;;;6.25;3.20;;;18.20;99.90;;;;;;5072491;28;20624;-86
2021/05/09 10:19:11;;;;;;;8.20;2.55;;;18.20;99.90;;;;;;5071821;28;20260;-87
2021/05/09 10:21:40;;;;;;;6.60;2.92;;;18.30;99.90;;;;;;5072226;28;20255;-74
2021/05/09 10:24:15;;;;;;;6.68;2.78;;;18.30;99.90;;;;;;5071776;28;20225;-71
2021/05/09 10:26:50;;;;;;;5.13;2.85;;;18.40;99.90;;;;;;5071864;28;20688;-76
2021/05/09 10:29:50;;;;;;;5.75;2.70;;;18.50;99.90;;;;;;5071002;28;20202;-73
2021/05/09 10:32:49;;;;;;;6.50;2.83;;;18.60;99.90;;;;;;5029531;28;20641;-71
2021/05/09 10:35:16;;;;;;;8.32;2.95;;;18.50;99.90;;;;;;5017900;28;20208;-77
2021/05/09 10:38:02;;;;;;;8.38;3.95;;;18.60;99.90;;;;;;5057807;28;20218;-78
2021/05/09 10:40:32;;;;;;;5.88;3.03;;;18.60;99.90;;;;;;5071764;28;20206;-69
2021/05/09 10:43:30;;;;;;;7.97;2.95;;;18.80;99.90;;;;;;5070942;28;20207;-70
2021/05/09 10:45:58;;;;;;;8.65;4.15;;;19.00;99.90;;;;;;5070998;28;20217;-77
2021/05/09 10:48:33;;;;;;;11.88;4.53;;;19.20;99.90;;;;;;5071432;28;20203;-74
2021/05/09 10:51:31;;;;;;;4.95;3.05;;;19.30;99.90;;;;;;5071428;28;20201;-77
2021/05/09 10:54:19;;;;;;;8.27;2.28;;;19.60;99.90;;;;;;5059474;28;20226;-70
2021/05/09 10:56:47;;;;;;;7.22;5.07;;;19.60;99.90;;;;;;5071322;28;20259;-74
2021/05/09 10:59:13;;;;;;;6.03;3.10;;;20.00;99.90;;;;;;5070666;28;20726;-75
2021/05/09 11:01:40;;;;;;;6.85;3.35;;;20.20;99.90;;;;;;5071194;28;20263;-75
2021/05/09 11:04:07;;;;;;;7.15;3.25;;;20.50;99.90;;;;;;5070741;28;20210;-84
2021/05/09 11:06:48;;;;;;;9.25;2.90;;;20.50;99.90;;;;;;5071546;28;20203;-73
2021/05/09 11:09:29;;;;;;;10.93;2.80;;;20.50;99.90;;;;;;5070756;28;20233;-70
2021/05/09 11:12:01;;;;;;;7.03;3.08;;;20.50;99.90;;;;;;5070628;28;20206;-84
2021/05/09 11:14:29;;;;;;;9.10;2.97;;;20.30;99.90;;;;;;5071186;28;20697;-84
2021/05/09 11:17:13;;;;;;;8.57;3.05;;;20.30;99.90;;;;;;5070524;28;20214;-81
2021/05/09 11:19:51;;;;;;;5.90;2.80;;;20.00;99.90;;;;;;5070710;28;20732;-71
2021/05/09 11:22:23;;;;;;;7.53;2.80;;;19.80;99.90;;;;;;5069182;28;20275;-83
2021/05/09 11:25:00;;;;;;;10.57;3.10;;;19.80;99.90;;;;;;5057241;28;20253;-84
2021/05/09 11:27:28;;;;;;;13.80;3.80;;;19.70;99.90;;;;;;5066283;28;20211;-76
2021/05/09 11:29:56;;;;;;;13.32;3.63;;;19.70;99.90;;;;;;5060605;28;20292;-74
2021/05/09 11:32:23;;;;;;;11.00;4.07;;;19.70;99.90;;;;;;5051190;28;20234;-92
2021/05/09 11:34:59;;;;;;;9.15;4.20;;;19.60;99.90;;;;;;5056094;28;20210;-73
2021/05/09 11:37:37;;;;;;;9.25;3.10;;;19.50;99.90;;;;;;5071169;28;20206;-77
2021/05/09 11:40:07;;;;;;;8.52;3.33;;;19.50;99.90;;;;;;5069241;28;20202;-72
2021/05/09 11:42:34;;;;;;;8.10;3.15;;;19.50;99.90;;;;;;5059078;28;20207;-72
2021/05/09 11:45:01;;;;;;;8.18;3.03;;;19.50;99.90;;;;;;5063934;28;20209;-88
2021/05/09 11:47:28;;;;;;;9.48;2.78;;;19.40;99.90;;;;;;5071204;28;20209;-88
2021/05/09 11:49:57;;;;;;;8.82;3.75;;;19.30;99.90;;;;;;5070428;28;20198;-89
2021/05/09 11:52:25;;;;;;;7.93;3.60;;;19.30;99.90;;;;;;5070410;28;20598;-81
2021/05/09 11:54:54;;;;;;;10.77;3.38;;;19.30;99.90;;;;;;5070555;28;20206;-78
2021/05/09 11:57:22;;;;;;;13.77;4.30;;;19.20;99.90;;;;;;5070509;28;20627;-70
2021/05/09 11:59:51;;;;;;;10.50;3.55;;;19.10;99.90;;;;;;5068068;28;20560;-83
2021/05/09 12:02:25;;;;;;;8.75;2.92;;;19.10;99.90;;;;;;5061603;28;20210;-82
2021/05/09 12:04:55;;;;;;;11.98;3.15;;;19.10;99.90;;;;;;5070449;28;20202;-70
2021/05/09 12:07:23;;;;;;;12.82;4.22;;;19.00;99.90;;;;;;5072513;28;20212;-75
2021/05/09 12:09:54;;;;;;;10.70;4.28;;;19.00;99.90;;;;;;5074782;28;20268;-74
2021/05/09 12:12:22;;;;;;;6.68;3.40;;;18.80;99.90;;;;;;5074621;28;20218;-80
2021/05/09 12:14:52;;;;;;;7.75;3.72;;;18.80;99.90;;;;;;5074815;28;20275;-82
2021/05/09 12:17:26;;;;;;;8.40;3.13;;;18.70;99.90;;;;;;5074098;28;20214;-82
2021/05/09 12:19:54;;;;;;;8.00;2.85;;;18.70;99.90;;;;;;5065580;28;20732;-81
2021/05/09 12:22:21;;;;;;;9.77;3.83;;;18.60;99.90;;;;;;5068486;28;20700;-72
2021/05/09 12:24:55;;;;;;;7.18;3.20;;;18.60;99.90;;;;;;5074223;28;20648;-88
2021/05/09 12:27:22;;;;;;;12.55;3.90;;;18.60;99.90;;;;;;5074456;28;20202;-86
2021/05/09 12:29:52;;;;;;;10.93;3.20;;;18.50;99.90;;;;;;5074378;28;20206;-79
2021/05/09 12:32:22;;;;;;;4.50;3.13;;;18.50;99.90;;;;;;5074121;28;20261;-77
2021/05/09 12:35:07;;;;;;;7.07;3.08;;;18.50;99.90;;;;;;5074205;28;20209;-83
2021/05/09 12:37:35;;;;;;;9.68;3.92;;;18.40;99.90;;;;;;5062368;28;20605;-87
2021/05/09 12:40:20;;;;;;;10.77;4.00;;;18.40;99.90;;;;;;5061511;28;20263;-82
2021/05/09 12:42:54;;;;;;;10.95;4.78;;;18.40;99.90;;;;;;5066518;28;20218;-79
2021/05/09 12:45:38;;;;;;;11.13;3.85;;;18.40;99.90;;;;;;5074239;28;20222;-80
2021/05/09 12:48:08;;;;;;;13.18;4.68;;;18.40;99.90;;;;;;5074019;28;20202;-85
2021/05/09 12:50:58;;;;;;;13.60;4.72;;;18.40;99.90;;;;;;5074341;28;20202;-79